Time;durP1;ratioP1;P1;durP2;ratioP2;P2;SDS_P1;SDS_P2;PMS_P1;PMS_P2;Temp;Humidity;BMP_temperature;BMP_pressure;BME280_temperature;BME280_humidity;BME280_pressure;Samples;Min_cycle;Max_cycle;Signal;HPM_P1;HPM_P2
2023/10/06 00:00:42;;;;;;;0.20;0.20;;;;;;;11.19;78.95;98511.38;5141271;27;20043;-75
2023/10/06 00:03:14;;;;;;;0.10;0.10;;;;;;;11.12;79.45;98521.06;5125433;27;20122;-73
2023/10/06 00:05:42;;;;;;;;;;;;;;;11.09;79.64;98522.28;5130303;27;20104;-73
2023/10/06 00:08:12;;;;;;;0.20;0.20;;;;;;;11.11;79.43;98527.44;5131187;27;19933;-75
2023/10/06 00:10:44;;;;;;;0.13;0.13;;;;;;;11.12;79.38;98526.41;5133376;27;20051;-73
2023/10/06 00:13:18;;;;;;;0.10;0.10;;;;;;;11.09;79.16;98527.63;5130821;27;20078;-73
2023/10/06 00:15:49;;;;;;;0.10;0.10;;;;;;;11.06;79.34;98524.47;5127505;27;20417;-74
2023/10/06 00:18:19;;;;;;;0.20;0.20;;;;;;;10.94;79.66;98524.00;5133629;27;20039;-73
2023/10/06 00:20:48;;;;;;;0.20;0.20;;;;;;;10.91;79.83;98516.34;5136446;27;20171;-73
2023/10/06 00:23:21;;;;;;;0.35;0.35;;;;;;;10.93;79.69;98525.00;5133470;27;20035;-73
2023/10/06 00:25:52;;;;;;;0.10;0.10;;;;;;;10.82;79.92;98512.88;5133660;27;20046;-73
2023/10/06 00:28:22;;;;;;;0.22;0.22;;;;;;;10.76;80.30;98520.75;5132999;27;20058;-73
2023/10/06 00:30:55;;;;;;;0.20;0.20;;;;;;;10.64;80.54;98525.63;5119191;27;20053;-72
2023/10/06 00:33:26;;;;;;;0.32;0.32;;;;;;;10.70;80.36;98522.25;5138805;27;20478;-72
2023/10/06 00:35:54;;;;;;;0.20;0.20;;;;;;;10.66;80.33;98524.47;5115548;27;20154;-73
2023/10/06 00:38:23;;;;;;;0.20;0.20;;;;;;;10.58;80.62;98529.84;5133186;27;20039;-73
2023/10/06 00:40:55;;;;;;;0.20;0.20;;;;;;;10.60;80.47;98519.78;5122943;27;20039;-74
2023/10/06 00:43:34;;;;;;;0.20;0.20;;;;;;;10.47;81.15;98519.53;5139486;27;20035;-76
2023/10/06 00:46:04;;;;;;;0.10;0.10;;;;;;;10.39;81.22;98516.84;5131972;27;20110;-73
2023/10/06 00:48:32;;;;;;;0.10;0.10;;;;;;;10.42;81.06;98524.53;5129327;27;20113;-72
2023/10/06 00:51:01;;;;;;;0.22;0.22;;;;;;;10.35;81.20;98528.88;5140413;27;20039;-73
2023/10/06 00:53:32;;;;;;;0.28;0.28;;;;;;;10.27;81.38;98531.56;5119285;27;20047;-73
2023/10/06 00:56:10;;;;;;;0.30;0.30;;;;;;;10.26;81.33;98524.56;5125889;27;20475;-73
2023/10/06 00:58:42;;;;;;;0.30;0.30;;;;;;;10.28;80.83;98522.53;5124943;27;20043;-73
2023/10/06 01:01:12;;;;;;;0.20;0.20;;;;;;;10.02;81.83;98532.56;5112303;27;20130;-73
2023/10/06 01:03:42;;;;;;;0.10;0.10;;;;;;;10.05;82.35;98524.22;5127424;27;20506;-72
2023/10/06 01:06:14;;;;;;;0.20;0.20;;;;;;;10.14;81.57;98529.38;5132538;27;20039;-72
2023/10/06 01:08:49;;;;;;;0.30;0.30;;;;;;;10.13;81.46;98526.88;5132910;27;20092;-72
2023/10/06 01:11:17;;;;;;;0.20;0.20;;;;;;;10.04;81.91;98517.22;5121735;27;20064;-72
2023/10/06 01:13:55;;;;;;;0.28;0.28;;;;;;;10.05;82.06;98526.91;5129122;27;20122;-72
2023/10/06 01:16:26;;;;;;;0.25;0.20;;;;;;;10.11;81.53;98515.53;5131836;27;20042;-73
2023/10/06 01:19:00;;;;;;;0.20;0.20;;;;;;;10.13;81.81;98511.72;5114255;27;20050;-73
2023/10/06 01:21:29;;;;;;;0.30;0.30;;;;;;;10.08;81.70;98508.69;5132204;27;20129;-73
2023/10/06 01:24:11;;;;;;;0.10;0.10;;;;;;;10.15;81.87;98499.03;5131165;27;20031;-73
2023/10/06 01:26:41;;;;;;;0.20;0.20;;;;;;;10.11;81.54;98502.22;5117589;27;20146;-73
2023/10/06 01:29:11;;;;;;;0.20;0.20;;;;;;;10.10;81.42;98496.03;5125698;27;20051;-71
2023/10/06 01:31:40;;;;;;;0.10;0.10;;;;;;;10.17;81.35;98493.53;5122405;27;20055;-73
2023/10/06 01:34:10;;;;;;;0.25;0.25;;;;;;;10.14;81.85;98496.53;5118421;27;20035;-73
2023/10/06 01:36:38;;;;;;;0.20;0.20;;;;;;;10.06;81.75;98499.22;5112306;27;20444;-74
2023/10/06 01:39:16;;;;;;;0.20;0.20;;;;;;;10.07;81.43;98500.91;5130793;27;20053;-74
2023/10/06 01:41:46;;;;;;;0.20;0.20;;;;;;;9.95;82.22;98508.41;5117448;27;20051;-73
2023/10/06 01:44:15;;;;;;;0.30;0.30;;;;;;;10.00;82.03;98506.06;5124119;27;20110;-73
2023/10/06 01:46:44;;;;;;;0.20;0.20;;;;;;;9.88;82.83;98508.22;5122175;27;20047;-75
2023/10/06 01:49:14;;;;;;;0.20;0.20;;;;;;;9.93;82.44;98510.41;5119499;27;20053;-73
2023/10/06 01:51:42;;;;;;;0.32;0.32;;;;;;;9.82;82.75;98513.41;5123066;27;20130;-73
2023/10/06 01:54:27;;;;;;;0.30;0.30;;;;;;;9.76;83.60;98514.88;5127686;27;20432;-73
2023/10/06 01:56:55;;;;;;;0.40;0.30;;;;;;;9.88;82.89;98516.22;5129504;28;20041;-74
2023/10/06 01:59:23;;;;;;;0.10;0.10;;;;;;;9.92;82.74;98509.56;5124095;28;20130;-74
2023/10/06 02:01:51;;;;;;;0.30;0.30;;;;;;;9.91;82.24;98515.91;5132219;27;20043;-74
2023/10/06 02:04:22;;;;;;;0.20;0.20;;;;;;;9.77;83.29;98508.56;5117312;27;20044;-75
2023/10/06 02:06:51;;;;;;;0.20;0.20;;;;;;;9.84;83.10;98508.75;5119625;27;20038;-73
2023/10/06 02:09:18;;;;;;;0.30;0.30;;;;;;;9.79;82.98;98508.41;5121115;28;20130;-73
2023/10/06 02:11:49;;;;;;;0.20;0.20;;;;;;;9.85;82.84;98513.09;5130815;27;20065;-72
2023/10/06 02:14:17;;;;;;;0.20;0.20;;;;;;;9.87;82.94;98516.38;5127051;28;20039;-73
2023/10/06 02:16:45;;;;;;;0.10;0.10;;;;;;;9.91;82.49;98513.22;5138799;27;20064;-74
2023/10/06 02:19:16;;;;;;;0.30;0.30;;;;;;;10.05;82.04;98509.06;5117956;27;20073;-74
2023/10/06 02:21:44;;;;;;;0.30;0.30;;;;;;;10.00;81.79;98506.06;5115617;28;20054;-74
2023/10/06 02:24:16;;;;;;;0.20;0.20;;;;;;;9.94;81.88;98512.06;5128371;28;20096;-73
2023/10/06 02:26:50;;;;;;;0.20;0.20;;;;;;;9.95;81.83;98513.75;5130449;28;20039;-74
2023/10/06 02:29:22;;;;;;;0.32;0.32;;;;;;;9.89;82.04;98512.56;5127485;27;20046;-73
2023/10/06 02:31:50;;;;;;;;;;;;;;;9.72;82.75;98507.41;5119661;28;20137;-73
2023/10/06 02:34:28;;;;;;;0.60;0.60;;;;;;;9.68;82.99;98508.72;5130895;27;20567;-74
2023/10/06 02:36:56;;;;;;;0.20;0.20;;;;;;;9.63;82.99;98501.25;5113040;28;20074;-75
2023/10/06 02:39:28;;;;;;;0.10;0.10;;;;;;;9.55;83.31;98502.06;5136341;27;20039;-74
2023/10/06 02:41:58;;;;;;;0.25;0.25;;;;;;;9.54;83.47;98504.91;5132582;27;20501;-75
2023/10/06 02:44:29;;;;;;;0.25;0.25;;;;;;;9.78;82.08;98498.72;5124316;27;20100;-74
2023/10/06 02:46:59;;;;;;;0.15;0.15;;;;;;;9.58;82.56;98492.91;5126438;27;20051;-74
2023/10/06 02:49:35;;;;;;;0.20;0.20;;;;;;;9.52;82.68;98486.41;5135228;27;20047;-74
2023/10/06 02:52:06;;;;;;;0.25;0.25;;;;;;;9.52;82.67;98486.41;5119092;27;20047;-74
2023/10/06 02:54:34;;;;;;;0.20;0.20;;;;;;;9.49;82.63;98486.75;5126566;27;20047;-75
2023/10/06 02:57:04;;;;;;;0.20;0.20;;;;;;;9.38;83.05;98483.56;5136360;27;20515;-74
2023/10/06 02:59:35;;;;;;;0.30;0.30;;;;;;;9.39;82.73;98475.41;5128039;27;20046;-73
2023/10/06 03:02:06;;;;;;;0.28;0.28;;;;;;;9.41;82.69;98477.91;5129593;27;20046;-73
2023/10/06 03:04:36;;;;;;;0.30;0.30;;;;;;;9.22;82.94;98478.22;5130313;27;20039;-73
2023/10/06 03:07:11;;;;;;;0.22;0.10;;;;;;;9.22;83.02;98481.72;5134899;27;20050;-73
2023/10/06 03:09:44;;;;;;;0.20;0.20;;;;;;;8.98;83.58;98474.50;5127025;27;20039;-73
2023/10/06 03:12:15;;;;;;;0.38;0.38;;;;;;;9.00;84.08;98472.53;5129844;27;20100;-74
2023/10/06 03:14:45;;;;;;;0.45;0.45;;;;;;;8.97;84.01;98475.50;5124617;27;20088;-74
2023/10/06 03:17:13;;;;;;;0.22;0.22;;;;;;;8.85;84.57;98484.78;5124037;27;20055;-75
2023/10/06 03:19:43;;;;;;;0.30;0.30;;;;;;;8.83;85.00;98486.75;5123254;27;20092;-74
2023/10/06 03:22:13;;;;;;;0.20;0.20;;;;;;;8.87;84.82;98490.78;5114290;27;20067;-74
2023/10/06 03:24:52;;;;;;;0.30;0.30;;;;;;;8.90;84.25;98489.63;5111017;27;20128;-74
2023/10/06 03:27:23;;;;;;;0.25;0.25;;;;;;;8.94;84.03;98493.63;5118020;27;20130;-74
2023/10/06 03:29:55;;;;;;;0.25;0.25;;;;;;;8.93;83.69;98499.97;5106727;27;20096;-74
2023/10/06 03:32:38;;;;;;;0.17;0.17;;;;;;;8.91;83.48;98485.97;5119195;27;20051;-75
2023/10/06 03:35:17;;;;;;;0.10;0.10;;;;;;;8.94;83.37;98490.97;5126522;27;20043;-73
2023/10/06 03:37:52;;;;;;;0.30;0.30;;;;;;;8.93;83.15;98494.66;5118382;27;20043;-74
2023/10/06 03:40:30;;;;;;;0.20;0.20;;;;;;;8.80;83.20;98492.44;5134214;27;20658;-74
2023/10/06 03:43:04;;;;;;;0.20;0.20;;;;;;;8.67;83.36;98492.88;5117603;27;20051;-74
2023/10/06 03:45:34;;;;;;;0.10;0.10;;;;;;;8.57;83.73;98500.16;5115884;27;20031;-73
2023/10/06 03:48:12;;;;;;;0.20;0.20;;;;;;;8.41;84.20;98503.56;5118407;27;20062;-74
2023/10/06 03:50:43;;;;;;;0.20;0.20;;;;;;;8.34;84.50;98507.00;5123942;27;20050;-74
2023/10/06 03:53:12;;;;;;;0.20;0.20;;;;;;;8.31;84.96;98507.28;5118676;27;20126;-72
2023/10/06 03:55:42;;;;;;;0.22;0.22;;;;;;;8.25;85.40;98515.91;5131580;27;20086;-73
2023/10/06 03:58:11;;;;;;;0.20;0.20;;;;;;;8.31;85.27;98520.59;5132332;27;20053;-72
2023/10/06 04:00:41;;;;;;;0.35;0.35;;;;;;;8.36;85.64;98518.34;5134421;27;20398;-73
2023/10/06 04:03:13;;;;;;;0.30;0.30;;;;;;;8.38;86.01;98522.50;5121922;27;20168;-73
2023/10/06 04:05:41;;;;;;;;;;;;;;;8.34;85.96;98526.47;5134118;27;20067;-72
2023/10/06 04:08:12;;;;;;;0.30;0.30;;;;;;;8.35;86.51;98520.16;5139539;27;19926;-75
2023/10/06 04:10:42;;;;;;;0.20;0.20;;;;;;;8.42;86.43;98529.16;5133251;27;20118;-75
2023/10/06 04:13:10;;;;;;;0.30;0.30;;;;;;;8.39;86.33;98523.34;5133279;27;20071;-73
2023/10/06 04:15:43;;;;;;;0.20;0.20;;;;;;;8.34;87.20;98531.78;5123603;27;20126;-73
2023/10/06 04:18:11;;;;;;;0.22;0.22;;;;;;;8.45;87.35;98531.53;5133436;27;20055;-74
2023/10/06 04:20:40;;;;;;;0.20;0.20;;;;;;;8.50;86.94;98533.72;5133633;27;20047;-74
2023/10/06 04:23:09;;;;;;;0.20;0.20;;;;;;;8.46;87.12;98532.34;5132596;27;20134;-73
2023/10/06 04:25:37;;;;;;;0.30;0.30;;;;;;;8.48;87.36;98525.06;5133605;27;20123;-73
2023/10/06 04:28:08;;;;;;;0.20;0.20;;;;;;;8.44;88.02;98527.19;5131522;27;20380;-73
2023/10/06 04:30:37;;;;;;;0.22;0.22;;;;;;;8.44;88.33;98519.22;5133827;27;20035;-73
2023/10/06 04:33:08;;;;;;;0.30;0.30;;;;;;;8.51;88.17;98511.44;5133320;27;20043;-73
2023/10/06 04:35:39;;;;;;;0.20;0.20;;;;;;;8.45;88.40;98518.22;5124584;27;20032;-73
2023/10/06 04:38:10;;;;;;;0.20;0.20;;;;;;;8.45;88.52;98510.22;5118981;27;20047;-74
2023/10/06 04:40:38;;;;;;;0.20;0.20;;;;;;;8.48;89.00;98508.25;5134150;27;20072;-74
2023/10/06 04:43:07;;;;;;;0.20;0.20;;;;;;;8.48;89.28;98526.88;5132406;27;20039;-74
2023/10/06 04:45:38;;;;;;;0.30;0.30;;;;;;;8.49;89.42;98529.38;5133325;27;20053;-74
2023/10/06 04:48:09;;;;;;;0.20;0.20;;;;;;;8.58;89.08;98531.09;5128283;27;20039;-74
2023/10/06 04:50:38;;;;;;;0.10;0.10;;;;;;;8.61;88.98;98527.28;5135764;27;20118;-73
2023/10/06 04:53:06;;;;;;;0.22;0.22;;;;;;;8.66;88.80;98523.13;5134357;27;20054;-74
2023/10/06 04:55:37;;;;;;;0.30;0.30;;;;;;;8.67;89.09;98518.66;5132728;27;20058;-74
2023/10/06 04:58:06;;;;;;;0.30;0.30;;;;;;;8.66;89.29;98525.81;5131543;27;20424;-73
2023/10/06 05:00:34;;;;;;;0.22;0.22;;;;;;;8.72;89.21;98527.81;5132966;27;20054;-75
2023/10/06 05:03:04;;;;;;;0.30;0.30;;;;;;;8.77;89.42;98522.03;5127446;27;20065;-74
2023/10/06 05:05:37;;;;;;;0.20;0.20;;;;;;;8.80;88.84;98516.38;5131509;27;20483;-74
2023/10/06 05:08:09;;;;;;;0.40;0.40;;;;;;;8.77;89.01;98512.22;5114340;27;20061;-75
2023/10/06 05:10:39;;;;;;;0.20;0.20;;;;;;;8.81;89.08;98515.41;5133236;27;20080;-75
2023/10/06 05:13:07;;;;;;;0.20;0.20;;;;;;;8.76;89.44;98513.19;5132477;27;20043;-74
2023/10/06 05:15:36;;;;;;;0.10;0.10;;;;;;;8.83;89.29;98521.38;5132836;27;20391;-74
2023/10/06 05:18:05;;;;;;;0.30;0.30;;;;;;;8.85;89.36;98511.41;5123221;27;20039;-74
2023/10/06 05:20:35;;;;;;;0.30;0.30;;;;;;;8.87;88.97;98511.25;5137685;27;20046;-74
2023/10/06 05:23:06;;;;;;;0.40;0.40;;;;;;;8.93;89.31;98511.41;5132852;27;20043;-73
2023/10/06 05:25:34;;;;;;;0.30;0.30;;;;;;;9.01;89.02;98508.81;5133192;27;20118;-74
2023/10/06 05:28:02;;;;;;;0.50;0.50;;;;;;;9.09;88.77;98508.81;5130804;27;20044;-74
2023/10/06 05:30:30;;;;;;;0.50;0.50;;;;;;;9.07;88.41;98515.31;5132190;27;20792;-74
2023/10/06 05:32:59;;;;;;;0.10;0.10;;;;;;;9.05;88.67;98514.63;5131608;27;20110;-73
2023/10/06 05:35:29;;;;;;;0.20;0.20;;;;;;;9.11;88.62;98516.66;5132476;27;20428;-74
2023/10/06 05:37:58;;;;;;;0.30;0.30;;;;;;;9.12;88.49;98515.66;5126831;27;20110;-74
2023/10/06 05:40:29;;;;;;;0.20;0.20;;;;;;;9.15;88.36;98524.13;5124887;27;20047;-75
2023/10/06 05:42:57;;;;;;;0.22;0.22;;;;;;;9.34;87.63;98530.19;5140046;27;20042;-75
2023/10/06 05:45:25;;;;;;;0.40;0.40;;;;;;;9.31;87.49;98534.00;5133857;27;20039;-75
2023/10/06 05:47:54;;;;;;;0.30;0.30;;;;;;;9.28;87.81;98536.16;5133288;27;20047;-74
2023/10/06 05:50:27;;;;;;;0.30;0.30;;;;;;;9.27;88.07;98545.16;5132938;27;20571;-74
2023/10/06 05:52:59;;;;;;;0.20;0.20;;;;;;;9.32;88.21;98554.34;5134379;27;20031;-74
2023/10/06 05:55:30;;;;;;;0.25;0.25;;;;;;;9.31;87.83;98551.81;5131942;28;20072;-74
2023/10/06 05:58:00;;;;;;;0.20;0.20;;;;;;;9.27;88.14;98543.31;5131948;28;20461;-74
2023/10/06 06:00:31;;;;;;;0.20;0.20;;;;;;;9.32;88.17;98548.16;5135392;27;20053;-74
2023/10/06 06:03:06;;;;;;;0.20;0.20;;;;;;;9.35;88.12;98537.16;5129795;27;20042;-74
2023/10/06 06:05:35;;;;;;;0.30;0.30;;;;;;;9.30;88.57;98534.19;5131280;28;20045;-74
2023/10/06 06:08:08;;;;;;;0.20;0.20;;;;;;;9.35;88.43;98531.84;5131403;28;20039;-74
2023/10/06 06:10:38;;;;;;;0.17;0.17;;;;;;;9.38;88.19;98529.69;5130684;27;20513;-73
2023/10/06 06:13:06;;;;;;;0.20;0.20;;;;;;;9.39;88.16;98519.88;5126046;27;20055;-74
2023/10/06 06:15:35;;;;;;;0.20;0.20;;;;;;;9.37;88.44;98519.19;5131837;27;20486;-73
2023/10/06 06:18:03;;;;;;;0.22;0.22;;;;;;;9.40;88.50;98514.38;5131232;27;20035;-75
2023/10/06 06:20:31;;;;;;;0.20;0.20;;;;;;;9.45;88.28;98516.53;5127420;27;20043;-74
2023/10/06 06:22:59;;;;;;;0.20;0.20;;;;;;;9.51;88.33;98521.22;5134469;27;20104;-74
2023/10/06 06:25:29;;;;;;;0.20;0.20;;;;;;;9.55;88.13;98531.38;5127836;27;20048;-74
2023/10/06 06:27:59;;;;;;;0.22;0.22;;;;;;;9.57;87.99;98537.38;5131396;27;20044;-74
2023/10/06 06:30:27;;;;;;;0.13;0.13;;;;;;;9.60;87.84;98527.38;5130594;27;20040;-74
2023/10/06 06:32:55;;;;;;;0.30;0.30;;;;;;;9.66;87.81;98537.38;5129294;27;20050;-72
2023/10/06 06:35:24;;;;;;;0.20;0.20;;;;;;;9.72;87.17;98542.91;5129720;27;20514;-74
2023/10/06 06:37:59;;;;;;;0.25;0.25;;;;;;;9.64;87.64;98552.72;5132244;27;20417;-74
2023/10/06 06:40:29;;;;;;;0.28;0.28;;;;;;;9.52;87.73;98542.38;5128126;27;20043;-74
2023/10/06 06:42:57;;;;;;;0.20;0.20;;;;;;;9.57;87.96;98550.69;5131498;27;20053;-74
2023/10/06 06:45:25;;;;;;;0.20;0.20;;;;;;;9.70;87.72;98546.72;5129568;27;20518;-74
2023/10/06 06:47:53;;;;;;;0.20;0.20;;;;;;;9.72;87.56;98545.56;5124029;27;20075;-74
2023/10/06 06:50:21;;;;;;;0.28;0.28;;;;;;;9.73;87.15;98544.56;5123102;27;20077;-74
2023/10/06 06:52:51;;;;;;;0.43;0.43;;;;;;;9.71;87.43;98543.91;5127953;27;20550;-74
2023/10/06 06:55:20;;;;;;;0.30;0.30;;;;;;;9.82;87.07;98530.25;5131535;27;20084;-75
2023/10/06 06:57:50;;;;;;;0.30;0.30;;;;;;;9.82;86.97;98526.75;5131647;27;20451;-75
2023/10/06 07:00:23;;;;;;;0.20;0.20;;;;;;;9.86;86.98;98533.41;5130944;27;20047;-75
2023/10/06 07:02:52;;;;;;;0.20;0.20;;;;;;;9.90;86.51;98527.56;5125149;27;20128;-74
2023/10/06 07:05:22;;;;;;;0.20;0.20;;;;;;;9.90;86.35;98516.91;5123203;27;20070;-74
2023/10/06 07:07:51;;;;;;;0.20;0.20;;;;;;;9.92;86.47;98514.91;5123267;27;20392;-74
2023/10/06 07:10:22;;;;;;;0.20;0.20;;;;;;;9.89;86.48;98511.72;5129510;27;20455;-74
2023/10/06 07:12:52;;;;;;;0.30;0.30;;;;;;;9.91;86.65;98518.56;5132107;27;20045;-75
2023/10/06 07:15:20;;;;;;;0.35;0.35;;;;;;;9.91;86.61;98513.22;5126548;27;20387;-74
2023/10/06 07:17:49;;;;;;;0.28;0.28;;;;;;;9.93;86.50;98524.56;5121090;27;20515;-75
2023/10/06 07:20:18;;;;;;;0.20;0.20;;;;;;;9.96;86.54;98515.41;5126477;27;20046;-73
2023/10/06 07:22:47;;;;;;;0.25;0.25;;;;;;;10.01;86.48;98518.38;5126559;27;20414;-74
2023/10/06 07:25:16;;;;;;;0.20;0.20;;;;;;;10.07;86.37;98527.56;5126122;27;20081;-75
2023/10/06 07:27:44;;;;;;;0.20;0.20;;;;;;;10.10;86.07;98537.88;5126031;27;20096;-74
2023/10/06 07:30:15;;;;;;;0.20;0.20;;;;;;;10.16;86.17;98545.22;5131909;27;20035;-73
2023/10/06 07:32:44;;;;;;;0.30;0.30;;;;;;;10.18;86.03;98546.75;5133942;27;20039;-75
2023/10/06 07:35:13;;;;;;;0.22;0.22;;;;;;;10.24;85.97;98547.91;5138514;27;20055;-75
2023/10/06 07:37:42;;;;;;;0.25;0.25;;;;;;;10.33;85.72;98554.91;5135205;27;20031;-74
2023/10/06 07:40:14;;;;;;;0.20;0.20;;;;;;;10.39;85.26;98556.88;5140281;27;20039;-74
2023/10/06 07:42:43;;;;;;;0.17;0.17;;;;;;;10.50;85.06;98559.19;5136225;27;20049;-74
2023/10/06 07:45:12;;;;;;;0.30;0.30;;;;;;;10.53;84.96;98566.88;5139787;27;20043;-75
2023/10/06 07:47:42;;;;;;;0.20;0.20;;;;;;;10.60;84.75;98567.84;5134608;27;20073;-72
2023/10/06 07:50:12;;;;;;;0.30;0.30;;;;;;;10.68;84.93;98556.34;5141091;27;20502;-75
2023/10/06 07:52:41;;;;;;;0.20;0.20;;;;;;;10.70;84.57;98551.63;5144001;27;20110;-75
2023/10/06 07:55:10;;;;;;;0.28;0.28;;;;;;;10.76;84.39;98548.28;5145693;27;20035;-76
2023/10/06 07:57:40;;;;;;;0.20;0.20;;;;;;;10.85;84.14;98554.44;5131446;27;20040;-73
2023/10/06 08:00:11;;;;;;;0.20;0.20;;;;;;;10.93;84.13;98568.59;5142333;27;20406;-74
2023/10/06 08:02:40;;;;;;;0.32;0.32;;;;;;;11.00;83.48;98566.06;5132534;27;20043;-76
2023/10/06 08:05:11;;;;;;;0.10;0.10;;;;;;;11.00;83.44;98560.72;5125920;27;20046;-73
2023/10/06 08:07:39;;;;;;;0.20;0.20;;;;;;;11.07;83.40;98571.53;5124469;27;20035;-73
2023/10/06 08:10:13;;;;;;;0.20;0.20;;;;;;;11.13;82.88;98557.47;5137769;27;20095;-74
2023/10/06 08:12:45;;;;;;;0.35;0.35;;;;;;;11.22;82.63;98543.91;5131775;27;20118;-74
2023/10/06 08:15:17;;;;;;;0.20;0.20;;;;;;;11.23;82.32;98564.28;5137571;27;20043;-74
2023/10/06 08:17:46;;;;;;;0.20;0.20;;;;;;;11.33;82.04;98580.09;5127077;27;20536;-74
2023/10/06 08:20:15;;;;;;;0.30;0.30;;;;;;;11.44;81.57;98568.16;5130601;27;20048;-74
2023/10/06 08:22:46;;;;;;;0.13;0.13;;;;;;;11.46;81.54;98568.84;5122961;27;20046;-76
2023/10/06 08:25:14;;;;;;;0.40;0.40;;;;;;;11.55;81.34;98576.63;5133609;27;20122;-74
2023/10/06 08:27:42;;;;;;;0.20;0.20;;;;;;;11.60;80.77;98587.63;5129394;27;20487;-75
2023/10/06 08:30:16;;;;;;;0.20;0.20;;;;;;;11.62;79.98;98587.47;5131375;27;20055;-75
2023/10/06 08:32:45;;;;;;;0.20;0.20;;;;;;;11.63;80.26;98578.41;5133652;27;20043;-72
2023/10/06 08:35:14;;;;;;;0.20;0.20;;;;;;;11.66;79.84;98575.41;5138773;27;20426;-73
2023/10/06 08:37:42;;;;;;;0.20;0.20;;;;;;;11.73;79.81;98573.69;5144026;27;20405;-72
2023/10/06 08:40:16;;;;;;;0.30;0.30;;;;;;;11.79;79.47;98564.97;5139790;27;20090;-71
2023/10/06 08:42:47;;;;;;;0.20;0.20;;;;;;;11.87;79.45;98572.09;5144572;27;20047;-72
2023/10/06 08:45:19;;;;;;;0.10;0.10;;;;;;;11.92;79.12;98564.38;5128695;27;20119;-74
2023/10/06 08:47:50;;;;;;;0.10;0.10;;;;;;;11.92;78.96;98554.53;5127160;27;20388;-72
2023/10/06 08:50:31;;;;;;;0.20;0.20;;;;;;;12.00;78.85;98545.59;5133463;27;20042;-73
2023/10/06 08:53:00;;;;;;;0.15;0.15;;;;;;;12.10;78.55;98538.13;5134464;27;20061;-72
2023/10/06 08:55:29;;;;;;;0.25;0.25;;;;;;;12.15;77.90;98545.63;5117573;27;20043;-71
2023/10/06 08:57:58;;;;;;;0.20;0.20;;;;;;;12.13;77.83;98549.31;5131692;27;20039;-73
2023/10/06 09:00:32;;;;;;;0.10;0.10;;;;;;;12.27;77.75;98544.16;5127399;27;20066;-72
2023/10/06 09:03:07;;;;;;;0.20;0.20;;;;;;;12.36;76.69;98551.94;5119408;27;20134;-74
2023/10/06 09:05:37;;;;;;;0.20;0.20;;;;;;;12.42;76.29;98545.88;5134121;27;20047;-73
2023/10/06 09:08:07;;;;;;;0.10;0.10;;;;;;;12.45;76.19;98531.28;5133858;27;20060;-71
2023/10/06 09:10:36;;;;;;;0.20;0.20;;;;;;;12.58;76.10;98522.59;5130051;27;20458;-71
2023/10/06 09:13:05;;;;;;;0.30;0.30;;;;;;;12.66;75.17;98520.69;5132295;27;20071;-72
2023/10/06 09:15:35;;;;;;;0.15;0.15;;;;;;;12.77;75.12;98541.63;5132986;27;20438;-72
2023/10/06 09:18:19;;;;;;;0.20;0.20;;;;;;;12.83;74.63;98532.84;5128093;27;20110;-72
2023/10/06 09:20:48;;;;;;;0.15;0.15;;;;;;;12.86;73.39;98537.84;5128575;27;20041;-71
2023/10/06 09:23:31;;;;;;;0.20;0.20;;;;;;;12.91;74.14;98541.81;5132875;27;20047;-71
2023/10/06 09:26:00;;;;;;;0.32;0.32;;;;;;;12.97;73.84;98530.38;5120278;27;20458;-72
2023/10/06 09:28:28;;;;;;;0.10;0.10;;;;;;;12.99;73.03;98529.13;5133678;27;20059;-72
2023/10/06 09:31:00;;;;;;;0.30;0.30;;;;;;;12.92;72.70;98524.72;5134797;27;20113;-71
2023/10/06 09:33:31;;;;;;;0.10;0.10;;;;;;;12.98;73.03;98518.63;5138665;27;20050;-72
2023/10/06 09:36:06;;;;;;;0.20;0.20;;;;;;;13.03;72.65;98516.19;5131911;27;20049;-71
2023/10/06 09:38:34;;;;;;;0.15;0.15;;;;;;;13.07;72.93;98517.50;5128167;27;20035;-72
2023/10/06 09:41:02;;;;;;;0.20;0.20;;;;;;;13.09;72.86;98500.19;5131595;27;20607;-73
2023/10/06 09:43:34;;;;;;;0.10;0.10;;;;;;;13.26;72.67;98494.66;5140615;27;20046;-73
2023/10/06 09:46:06;;;;;;;0.20;0.20;;;;;;;13.35;71.51;98482.78;5135467;27;20039;-75
2023/10/06 09:48:38;;;;;;;0.10;0.10;;;;;;;13.31;71.49;98473.44;5133624;27;20063;-72
2023/10/06 09:51:07;;;;;;;0.20;0.20;;;;;;;13.39;71.20;98478.72;5124136;27;20060;-73
2023/10/06 09:53:38;;;;;;;0.20;0.20;;;;;;;13.48;70.90;98475.72;5129169;27;20092;-72
2023/10/06 09:56:11;;;;;;;0.20;0.20;;;;;;;13.60;70.26;98466.09;5118955;27;20448;-72
2023/10/06 09:58:40;;;;;;;0.20;0.20;;;;;;;13.75;70.43;98462.53;5124558;28;20059;-73
2023/10/06 10:01:10;;;;;;;0.10;0.10;;;;;;;13.88;69.82;98459.97;5129460;27;20080;-72
2023/10/06 10:03:40;;;;;;;0.10;0.10;;;;;;;13.88;69.17;98468.03;5121443;27;20490;-72
2023/10/06 10:06:08;;;;;;;0.10;0.10;;;;;;;13.99;68.70;98461.28;5130109;27;20073;-72
2023/10/06 10:08:40;;;;;;;0.20;0.20;;;;;;;14.05;68.31;98464.03;5131742;27;20495;-72
2023/10/06 10:11:14;;;;;;;0.13;0.13;;;;;;;14.17;68.26;98451.72;5131978;28;20039;-72
2023/10/06 10:13:56;;;;;;;0.20;0.20;;;;;;;14.24;67.77;98449.91;5136068;27;20042;-72
2023/10/06 10:16:41;;;;;;;0.10;0.10;;;;;;;14.20;67.77;98451.34;5131389;28;20038;-72
2023/10/06 10:19:12;;;;;;;0.20;0.20;;;;;;;14.35;67.20;98451.22;5124639;28;20421;-73
2023/10/06 10:21:41;;;;;;;0.20;0.13;;;;;;;14.51;66.74;98466.22;5128576;27;20043;-72
2023/10/06 10:24:13;;;;;;;0.20;0.20;;;;;;;14.61;66.03;98458.63;5129573;28;20140;-73
2023/10/06 10:27:00;;;;;;;0.30;0.30;;;;;;;14.56;65.45;98472.66;5119159;28;20039;-71
2023/10/06 10:29:28;;;;;;;0.20;0.20;;;;;;;14.55;65.93;98468.31;5120225;28;20039;-72
2023/10/06 10:32:03;;;;;;;0.20;0.20;;;;;;;14.51;65.63;98460.84;5127117;28;20055;-77
2023/10/06 10:34:34;;;;;;;0.13;0.13;;;;;;;14.55;65.93;98456.72;5128995;27;20054;-72
2023/10/06 10:37:15;;;;;;;0.22;0.22;;;;;;;14.54;64.85;98441.63;5131509;28;20084;-71
2023/10/06 10:39:48;;;;;;;0.20;0.20;;;;;;;14.55;65.39;98437.91;5134892;27;20031;-71
2023/10/06 10:42:18;;;;;;;0.20;0.20;;;;;;;14.59;65.31;98441.88;5131634;28;20506;-73
2023/10/06 10:44:48;;;;;;;0.10;0.10;;;;;;;14.71;64.74;98444.84;5133282;28;20045;-71
2023/10/06 10:47:16;;;;;;;0.13;0.13;;;;;;;14.85;64.02;98439.28;5133171;27;20051;-72
2023/10/06 10:49:46;;;;;;;0.17;0.17;;;;;;;14.92;63.63;98420.53;5131320;27;20058;-73
2023/10/06 10:52:15;;;;;;;0.15;0.15;;;;;;;14.95;63.62;98417.44;5134775;27;20047;-71
2023/10/06 10:54:43;;;;;;;0.10;0.10;;;;;;;15.01;62.75;98425.50;5132069;27;20035;-72
2023/10/06 10:57:14;;;;;;;0.20;0.20;;;;;;;15.03;62.96;98403.81;5129475;28;20055;-73
2023/10/06 11:00:20;;;;;;;0.10;0.10;;;;;;;15.19;62.68;98406.09;5130993;27;20110;-74
2023/10/06 11:03:04;;;;;;;0.10;0.10;;;;;;;15.29;62.48;98394.94;5042920;28;20076;-73
2023/10/06 11:05:34;;;;;;;0.10;0.10;;;;;;;15.32;61.82;98386.47;5121348;27;20501;-73
2023/10/06 11:08:02;;;;;;;0.17;0.10;;;;;;;15.38;61.96;98377.56;5135817;27;20394;-74
2023/10/06 11:10:32;;;;;;;0.30;0.30;;;;;;;15.41;61.83;98382.56;5135712;27;20039;-71
2023/10/06 11:13:15;;;;;;;0.20;0.20;;;;;;;15.48;61.40;98378.00;5135013;27;20031;-75
2023/10/06 11:15:43;;;;;;;0.20;0.20;;;;;;;15.46;61.58;98382.78;5129144;27;20063;-72
2023/10/06 11:18:13;;;;;;;0.10;0.10;;;;;;;15.57;60.89;98375.97;5133180;27;20042;-72
2023/10/06 11:20:43;;;;;;;0.20;0.20;;;;;;;15.57;60.41;98362.53;5137745;27;20039;-72
2023/10/06 11:23:11;;;;;;;0.20;0.20;;;;;;;15.65;60.89;98371.22;5135582;27;20051;-72
2023/10/06 11:25:48;;;;;;;0.10;0.10;;;;;;;15.77;60.20;98371.41;5135398;27;20051;-72
2023/10/06 11:28:16;;;;;;;0.10;0.10;;;;;;;15.94;59.46;98366.41;5129709;27;20084;-72
2023/10/06 11:30:44;;;;;;;0.20;0.20;;;;;;;16.23;58.71;98362.41;5136008;27;20409;-72
2023/10/06 11:33:13;;;;;;;0.10;0.10;;;;;;;16.34;58.07;98359.88;5134648;27;20039;-73
2023/10/06 11:35:43;;;;;;;0.20;0.20;;;;;;;16.32;58.37;98350.34;5135642;27;20537;-72
2023/10/06 11:38:12;;;;;;;0.13;0.13;;;;;;;16.45;57.97;98329.59;5139393;27;20051;-74
2023/10/06 11:40:41;;;;;;;0.10;0.10;;;;;;;16.52;57.47;98341.16;5138527;27;20494;-72
2023/10/06 11:43:12;;;;;;;0.15;0.15;;;;;;;16.50;57.21;98337.88;5137980;27;20088;-73
2023/10/06 11:45:41;;;;;;;0.10;0.10;;;;;;;16.41;57.79;98344.50;5135510;27;20575;-72
2023/10/06 11:48:24;;;;;;;0.10;0.10;;;;;;;16.59;57.52;98351.09;5135610;27;20045;-72
2023/10/06 11:51:01;;;;;;;0.10;0.10;;;;;;;16.48;57.33;98341.81;5127080;27;20044;-73
2023/10/06 11:53:29;;;;;;;0.20;0.20;;;;;;;16.78;56.96;98332.16;5129386;27;20108;-72
2023/10/06 11:56:07;;;;;;;0.10;0.10;;;;;;;17.10;55.32;98332.16;5132699;27;20036;-72